Bella Una — WDF6443 — position and weather

sailwx.info

Track history (hours):
 
Tides and Currents Weather Stations Pressure Air Temp Water Temp Dewpoint Dewpoint Depression Visibility Wind Speed Wind Dir Waves Ship Positions

Bella Una

Owner: Bella Una, LLC, Fort Lauderdale, FL. More information available from US FCC via Universal Licensing System and Coast Guard Vessel Documentation Center.

Last reported at 2015-Jun-28 01:33 UTC. Time now 2015-Jul-04 05:06 UTC.
Position N 41°17' W 070°06'.

Length 39 m; draft 2.2 m.

Type: Pleasure craft. MMSI: 366609000.

Date/timePositionNaut miles runAvg speedWind from/ knotsBaromVisibWave heightAir tempDewpointWater temp
2015-Jun-28 01:33N 41°17' W 070°06'0 0.0
2015-Jun-28 00:33N 41°17' W 070°06'0 0.0
2015-Jun-27 20:12N 41°17' W 070°06'5 7.6
2015-Jun-27 19:33N 41°21' W 070°09'5 4.7
2015-Jun-27 18:33N 41°17' W 070°06'0 0.0
2015-Jun-27 17:33N 41°17' W 070°06'3 3.2
2015-Jun-27 16:33N 41°20' W 070°07'3 3.1
2015-Jun-27 15:31N 41°17' W 070°06'0 0.0
2015-Jun-27 14:04N 41°17' W 070°06'0 0.0
2015-Jun-27 13:31N 41°17' W 070°06'0 0.0
2015-Jun-27 11:07N 41°17' W 070°06'0 0.0
2015-Jun-27 10:31N 41°17' W 070°06'0 0.0
2015-Jun-27 09:28N 41°17' W 070°06'0 0.0
2015-Jun-26 04:26N 41°17' W 070°06'0 0.0
2015-Jun-26 03:33N 41°17' W 070°06'0 0.0
2015-Jun-26 02:33N 41°17' W 070°06'0 0.0
2015-Jun-26 01:33N 41°17' W 070°06'0 0.0
2015-Jun-26 00:33N 41°17' W 070°06'0 0.0
2015-Jun-25 23:33N 41°17' W 070°06'30 7.5
2015-Jun-25 19:30N 41°28' W 070°43'1312.3
2015-Jun-25 18:29N 41°23' W 070°59'1111.9
2015-Jun-25 17:33N 41°24' W 071°13'7 7.1
2015-Jun-25 16:33N 41°29' W 071°20'1 0.2
2015-Jun-25 11:32N 41°29' W 071°19'0 0.0
2015-Jun-25 10:26N 41°29' W 071°19'0 0.0
2015-Jun-25 09:29N 41°29' W 071°19'0 0.0
2015-Jun-25 08:32N 41°29' W 071°19'0 0.0
2015-Jun-25 03:32N 41°29' W 071°19'0 0.0
2015-Jun-25 01:14N 41°29' W 071°19'0 0.0
2015-Jun-24 11:26N 41°29' W 071°19'0 0.0
2015-Jun-24 04:32N 41°29' W 071°19'0 0.0
2015-Jun-24 03:32N 41°29' W 071°19'  
2015-Jun-20 21:08N 41°29' W 071°19'0 0.0
2015-Jun-20 20:26N 41°29' W 071°19'0 0.0
2015-Jun-20 19:32N 41°29' W 071°19'0 0.0
2015-Jun-20 08:17N 41°29' W 071°19'0 0.0
2015-Jun-20 07:32N 41°29' W 071°19'0 0.0
2015-Jun-20 06:08N 41°29' W 071°19'0 0.0
2015-Jun-20 05:26N 41°29' W 071°19'0 0.0
2015-Jun-19 05:05N 41°29' W 071°19'0 0.0
2015-Jun-19 04:29N 41°29' W 071°19'0 0.0
2015-Jun-19 03:32N 41°29' W 071°19'0 0.0
2015-Jun-19 02:32N 41°29' W 071°19'0 0.0
2015-Jun-19 01:32N 41°29' W 071°19'0 0.0
2015-Jun-19 00:29N 41°29' W 071°19'0 0.0
2015-Jun-18 23:32N 41°29' W 071°19'0 0.0
2015-Jun-18 22:32N 41°29' W 071°19'0 0.0
2015-Jun-18 21:14N 41°29' W 071°19'0 0.0
2015-Jun-18 20:23N 41°29' W 071°19'0 0.0
2015-Jun-18 19:32N 41°29' W 071°19'0 0.0
2015-Jun-18 18:32N 41°29' W 071°19'0 0.0
2015-Jun-18 17:32N 41°29' W 071°19'0 0.0
2015-Jun-18 16:29N 41°29' W 071°19'0 0.0
2015-Jun-18 15:17N 41°29' W 071°19'0 0.0
2015-Jun-18 14:17N 41°29' W 071°19'0 0.0
2015-Jun-18 13:31N 41°29' W 071°19'0 0.0
2015-Jun-18 12:33N 41°29' W 071°19'0 0.0
2015-Jun-18 11:30N 41°29' W 071°19'0 0.0
2015-Jun-18 10:30N 41°29' W 071°19'0 0.0
2015-Jun-18 09:20N 41°29' W 071°19'0 0.0
2015-Jun-18 08:32N 41°29' W 071°19'0 0.0
2015-Jun-18 07:32N 41°29' W 071°19'0 0.0
2015-Jun-18 06:32N 41°29' W 071°19'0 0.0
2015-Jun-18 05:32N 41°29' W 071°19'0 0.0
2015-Jun-18 04:29N 41°29' W 071°19'  
Track history (hours):
 
Tides and Currents Weather Stations Pressure Air Temp Water Temp Dewpoint Dewpoint Depression Visibility Wind Speed Wind Dir Waves Ship Positions

Bella Una

Owner: Bella Una, LLC, Fort Lauderdale, FL. More information available from US FCC via Universal Licensing System and Coast Guard Vessel Documentation Center.

Last reported at 2015-Jun-28 01:33 UTC. Time now 2015-Jul-04 05:06 UTC.
Position N 41°17' W 070°06'.

Length 39 m; draft 2.2 m.

Type: Pleasure craft. MMSI: 366609000.

Date/timePositionNaut miles runAvg speedWind from/ knotsBaromVisibWave heightAir tempDewpointWater temp
2015-Jun-28 01:33N 41°17' W 070°06'0 0.0
2015-Jun-28 00:33N 41°17' W 070°06'0 0.0
2015-Jun-27 20:12N 41°17' W 070°06'5 7.6
2015-Jun-27 19:33N 41°21' W 070°09'5 4.7
2015-Jun-27 18:33N 41°17' W 070°06'0 0.0
2015-Jun-27 17:33N 41°17' W 070°06'3 3.2
2015-Jun-27 16:33N 41°20' W 070°07'3 3.1
2015-Jun-27 15:31N 41°17' W 070°06'0 0.0
2015-Jun-27 14:04N 41°17' W 070°06'0 0.0
2015-Jun-27 13:31N 41°17' W 070°06'0 0.0
2015-Jun-27 11:07N 41°17' W 070°06'0 0.0
2015-Jun-27 10:31N 41°17' W 070°06'0 0.0
2015-Jun-27 09:28N 41°17' W 070°06'0 0.0
2015-Jun-26 04:26N 41°17' W 070°06'0 0.0
2015-Jun-26 03:33N 41°17' W 070°06'0 0.0
2015-Jun-26 02:33N 41°17' W 070°06'0 0.0
2015-Jun-26 01:33N 41°17' W 070°06'0 0.0
2015-Jun-26 00:33N 41°17' W 070°06'0 0.0
2015-Jun-25 23:33N 41°17' W 070°06'30 7.5
2015-Jun-25 19:30N 41°28' W 070°43'1312.3
2015-Jun-25 18:29N 41°23' W 070°59'1111.9
2015-Jun-25 17:33N 41°24' W 071°13'7 7.1
2015-Jun-25 16:33N 41°29' W 071°20'1 0.2
2015-Jun-25 11:32N 41°29' W 071°19'0 0.0
2015-Jun-25 10:26N 41°29' W 071°19'0 0.0
2015-Jun-25 09:29N 41°29' W 071°19'0 0.0
2015-Jun-25 08:32N 41°29' W 071°19'0 0.0
2015-Jun-25 03:32N 41°29' W 071°19'0 0.0
2015-Jun-25 01:14N 41°29' W 071°19'0 0.0
2015-Jun-24 11:26N 41°29' W 071°19'0 0.0
2015-Jun-24 04:32N 41°29' W 071°19'0 0.0
2015-Jun-24 03:32N 41°29' W 071°19'  
2015-Jun-20 21:08N 41°29' W 071°19'0 0.0
2015-Jun-20 20:26N 41°29' W 071°19'0 0.0
2015-Jun-20 19:32N 41°29' W 071°19'0 0.0
2015-Jun-20 08:17N 41°29' W 071°19'0 0.0
2015-Jun-20 07:32N 41°29' W 071°19'0 0.0
2015-Jun-20 06:08N 41°29' W 071°19'0 0.0
2015-Jun-20 05:26N 41°29' W 071°19'0 0.0
2015-Jun-19 05:05N 41°29' W 071°19'0 0.0
2015-Jun-19 04:29N 41°29' W 071°19'0 0.0
2015-Jun-19 03:32N 41°29' W 071°19'0 0.0
2015-Jun-19 02:32N 41°29' W 071°19'0 0.0
2015-Jun-19 01:32N 41°29' W 071°19'0 0.0
2015-Jun-19 00:29N 41°29' W 071°19'0 0.0
2015-Jun-18 23:32N 41°29' W 071°19'0 0.0
2015-Jun-18 22:32N 41°29' W 071°19'0 0.0
2015-Jun-18 21:14N 41°29' W 071°19'0 0.0
2015-Jun-18 20:23N 41°29' W 071°19'0 0.0
2015-Jun-18 19:32N 41°29' W 071°19'0 0.0
2015-Jun-18 18:32N 41°29' W 071°19'0 0.0
2015-Jun-18 17:32N 41°29' W 071°19'0 0.0
2015-Jun-18 16:29N 41°29' W 071°19'0 0.0
2015-Jun-18 15:17N 41°29' W 071°19'0 0.0
2015-Jun-18 14:17N 41°29' W 071°19'0 0.0
2015-Jun-18 13:31N 41°29' W 071°19'0 0.0
2015-Jun-18 12:33N 41°29' W 071°19'0 0.0
2015-Jun-18 11:30N 41°29' W 071°19'0 0.0
2015-Jun-18 10:30N 41°29' W 071°19'0 0.0
2015-Jun-18 09:20N 41°29' W 071°19'0 0.0
2015-Jun-18 08:32N 41°29' W 071°19'0 0.0
2015-Jun-18 07:32N 41°29' W 071°19'0 0.0
2015-Jun-18 06:32N 41°29' W 071°19'0 0.0
2015-Jun-18 05:32N 41°29' W 071°19'0 0.0
2015-Jun-18 04:29N 41°29' W 071°19'  

Dump ship's entire track history